Time,TemperatureF,DewpointF,PressureIn,WindDirection,WindDirectionDegrees,WindSpeedMPH,WindSpeedGustMPH,Humidity,HourlyPrecipIn,Conditions,Clouds,dailyrainin,SoftwareType,DateUTC
2013-08-24 00:00:00,63.9,60.3,30.08,NW,315,0.0,0.0,88,0.00,,---,0.00,VWS V14.01,2013-08-24 04:00:00,
2013-08-24 00:30:00,62.8,58.9,30.09,NW,315,0.0,0.0,87,0.00,,---,0.00,VWS V14.01,2013-08-24 04:30:00,
2013-08-24 01:00:00,63.3,58.7,30.09,NW,315,0.0,1.0,85,0.00,,---,0.00,VWS V14.01,2013-08-24 05:00:00,
2013-08-24 01:30:00,62.9,57.3,30.10,NW,315,0.0,0.0,82,0.00,,---,0.00,VWS V14.01,2013-08-24 05:30:00,
2013-08-24 02:00:00,62.4,56.2,30.11,NW,315,0.0,1.0,80,0.00,,---,0.00,VWS V14.01,2013-08-24 06:00:00,
2013-08-24 02:30:00,61.7,55.1,30.12,NW,315,0.0,0.0,79,0.00,,---,0.00,VWS V14.01,2013-08-24 06:30:00,
2013-08-24 03:00:00,60.7,54.5,30.13,NW,315,0.0,0.0,80,0.00,,---,0.00,VWS V14.01,2013-08-24 07:00:00,
2013-08-24 03:30:00,60.1,54.3,30.14,NW,315,0.0,0.0,81,0.00,,---,0.00,VWS V14.01,2013-08-24 07:30:00,
2013-08-24 04:00:00,60.0,53.5,30.14,NW,315,0.0,1.0,79,0.00,,---,0.00,VWS V14.01,2013-08-24 08:00:00,
2013-08-24 04:30:00,59.9,53.7,30.15,NW,315,0.0,1.0,80,0.00,,---,0.00,VWS V14.01,2013-08-24 08:30:00,
2013-08-24 05:00:00,59.4,52.9,30.16,NW,315,0.0,1.0,79,0.00,,---,0.00,VWS V14.01,2013-08-24 09:00:00,
2013-08-24 05:30:00,59.0,52.8,30.17,NW,315,0.0,0.0,80,0.00,,---,0.00,VWS V14.01,2013-08-24 09:30:00,
2013-08-24 06:00:00,58.2,52.1,30.18,NW,315,0.0,0.0,80,0.00,,---,0.00,VWS V14.01,2013-08-24 10:00:00,
2013-08-24 06:30:00,58.0,52.2,30.19,NW,315,0.0,2.0,81,0.00,,---,0.00,VWS V14.01,2013-08-24 10:30:00,
2013-08-24 07:00:00,58.0,52.9,30.20,NW,315,0.0,1.0,83,0.00,,---,0.00,VWS V14.01,2013-08-24 11:00:00,
2013-08-24 07:30:00,58.1,52.6,30.21,NW,315,0.0,1.0,82,0.00,,---,0.00,VWS V14.01,2013-08-24 11:30:00,
2013-08-24 08:00:00,58.7,53.6,30.23,NW,315,0.0,1.0,83,0.00,,---,0.00,VWS V14.01,2013-08-24 12:00:00,
2013-08-24 08:30:00,60.0,54.2,30.24,NW,315,0.0,2.0,81,0.00,,---,0.00,VWS V14.01,2013-08-24 12:30:00,
2013-08-24 09:00:00,61.6,55.0,30.24,ENE,68,0.0,2.0,79,0.00,,---,0.00,VWS V14.01,2013-08-24 13:00:00,
2013-08-24 09:53:00,65.1,57.7,30.26,East,88,0.0,0.0,77,0.00,,---,0.00,VWS V14.01,2013-08-24 13:53:00,
2013-08-24 09:58:00,65.6,57.8,30.26,East,88,1.0,1.0,76,0.00,,---,0.00,VWS V14.01,2013-08-24 13:58:00,
2013-08-24 10:04:00,66.0,58.2,30.26,East,88,0.0,0.0,76,0.00,,---,0.00,VWS V14.01,2013-08-24 14:04:00,
2013-08-24 10:09:00,66.7,58.9,30.26,East,88,0.0,0.0,76,0.00,,---,0.00,VWS V14.01,2013-08-24 14:09:00,
2013-08-24 10:14:00,67.1,59.3,30.26,East,88,0.0,1.0,76,0.00,,---,0.00,VWS V14.01,2013-08-24 14:14:00,
2013-08-24 10:19:00,67.7,58.7,30.26,East,88,0.0,2.0,73,0.00,,---,0.00,VWS V14.01,2013-08-24 14:19:00,
2013-08-24 10:24:00,68.3,58.9,30.26,East,88,0.0,2.0,72,0.00,,---,0.00,VWS V14.01,2013-08-24 14:24:00,
2013-08-24 10:29:00,68.7,59.3,30.26,East,92,0.0,2.0,72,0.00,,---,0.00,VWS V14.01,2013-08-24 14:29:00,
2013-08-24 10:34:00,69.5,58.5,30.26,East,92,0.0,1.0,68,0.00,,---,0.00,VWS V14.01,2013-08-24 14:34:00,
2013-08-24 10:39:00,69.9,59.3,30.26,East,92,1.0,2.0,69,0.00,,---,0.00,VWS V14.01,2013-08-24 14:39:00,
2013-08-24 10:44:00,70.1,59.5,30.26,East,92,1.0,2.0,69,0.00,,---,0.00,VWS V14.01,2013-08-24 14:44:00,
2013-08-24 10:50:00,70.4,60.2,30.26,East,92,2.0,2.0,70,0.00,,---,0.00,VWS V14.01,2013-08-24 14:50:00,
2013-08-24 10:55:00,70.6,58.7,30.26,East,92,0.0,2.0,66,0.00,,---,0.00,VWS V14.01,2013-08-24 14:55:00,
2013-08-24 11:00:00,70.7,60.0,30.26,East,92,0.0,2.0,69,0.00,,---,0.00,VWS V14.01,2013-08-24 15:00:00,
2013-08-24 11:05:00,71.0,60.3,30.26,East,92,0.0,2.0,69,0.00,,---,0.00,VWS V14.01,2013-08-24 15:05:00,
2013-08-24 11:10:00,71.5,60.4,30.26,East,92,0.0,2.0,68,0.00,,---,0.00,VWS V14.01,2013-08-24 15:10:00,
2013-08-24 11:15:00,71.6,59.7,30.26,East,92,0.0,2.0,66,0.00,,---,0.00,VWS V14.01,2013-08-24 15:15:00,
2013-08-24 11:20:00,72.2,60.2,30.26,East,92,0.0,2.0,66,0.00,,---,0.00,VWS V14.01,2013-08-24 15:20:00,
2013-08-24 11:25:00,72.6,61.9,30.26,East,92,1.0,2.0,69,0.00,,---,0.00,VWS V14.01,2013-08-24 15:25:00,
2013-08-24 11:30:00,72.9,60.9,30.26,East,92,0.0,0.0,66,0.00,,---,0.00,VWS V14.01,2013-08-24 15:30:00,
2013-08-24 11:36:00,72.4,59.1,30.26,ENE,76,1.0,2.0,63,0.00,,---,0.00,VWS V14.01,2013-08-24 15:36:00,
2013-08-24 11:41:00,72.0,59.2,30.26,ENE,71,2.0,2.0,64,0.00,,---,0.00,VWS V14.01,2013-08-24 15:41:00,
2013-08-24 11:46:00,71.5,60.0,30.26,NE,39,0.0,2.0,67,0.00,,---,0.00,VWS V14.01,2013-08-24 15:46:00,
2013-08-24 11:51:00,71.7,59.8,30.25,North,5,2.0,2.0,66,0.00,,---,0.00,VWS V14.01,2013-08-24 15:51:00,
2013-08-24 11:56:00,71.4,58.2,30.26,WNW,298,1.0,2.0,63,0.00,,---,0.00,VWS V14.01,2013-08-24 15:56:00,
2013-08-24 12:01:00,70.9,57.7,30.26,WNW,298,2.0,2.0,63,0.00,,---,0.00,VWS V14.01,2013-08-24 16:01:00,
2013-08-24 12:06:00,71.0,58.2,30.26,WNW,298,0.0,2.0,64,0.00,,---,0.00,VWS V14.01,2013-08-24 16:06:00,
2013-08-24 12:11:00,71.0,57.8,30.26,WNW,298,0.0,3.0,63,0.00,,---,0.00,VWS V14.01,2013-08-24 16:11:00,
2013-08-24 12:16:00,70.9,58.6,30.26,WNW,298,0.0,3.0,65,0.00,,---,0.00,VWS V14.01,2013-08-24 16:16:00,
2013-08-24 12:21:00,70.9,58.1,30.26,WNW,298,0.0,3.0,64,0.00,,---,0.00,VWS V14.01,2013-08-24 16:21:00,
2013-08-24 12:27:00,71.3,58.5,30.26,WNW,298,3.0,4.0,64,0.00,,---,0.00,VWS V14.01,2013-08-24 16:27:00,
2013-08-24 12:32:00,71.0,57.8,30.26,WNW,298,1.0,3.0,63,0.00,,---,0.00,VWS V14.01,2013-08-24 16:32:00,
2013-08-24 12:37:00,71.2,57.5,30.26,WNW,298,0.0,3.0,62,0.00,,---,0.00,VWS V14.01,2013-08-24 16:37:00,
2013-08-24 12:42:00,71.7,57.5,30.26,WNW,298,1.0,3.0,61,0.00,,---,0.00,VWS V14.01,2013-08-24 16:42:00,
2013-08-24 12:47:00,71.8,58.5,30.25,WNW,298,2.0,3.0,63,0.00,,---,0.00,VWS V14.01,2013-08-24 16:47:00,
2013-08-24 12:52:00,71.6,58.8,30.26,NNW,327,0.0,4.0,64,0.00,,---,0.00,VWS V14.01,2013-08-24 16:52:00,
2013-08-24 12:57:00,71.8,58.5,30.25,NNW,327,0.0,4.0,63,0.00,,---,0.00,VWS V14.01,2013-08-24 16:57:00,
2013-08-24 13:02:00,72.4,58.7,30.26,NNW,329,3.0,3.0,62,0.00,,---,0.00,VWS V14.01,2013-08-24 17:02:00,
2013-08-24 13:07:00,71.9,58.2,30.26,NW,318,1.0,3.0,62,0.00,,---,0.00,VWS V14.01,2013-08-24 17:07:00,
2013-08-24 13:13:00,71.9,58.6,30.26,NNW,347,0.0,3.0,63,0.00,,---,0.00,VWS V14.01,2013-08-24 17:13:00,
2013-08-24 13:18:00,71.9,59.1,30.26,NNW,347,0.0,3.0,64,0.00,,---,0.00,VWS V14.01,2013-08-24 17:18:00,
2013-08-24 13:23:00,72.0,58.3,30.26,NNW,347,0.0,3.0,62,0.00,,---,0.00,VWS V14.01,2013-08-24 17:23:00,
2013-08-24 13:28:00,72.0,57.8,30.26,NNW,347,0.0,3.0,61,0.00,,---,0.00,VWS V14.01,2013-08-24 17:28:00,
2013-08-24 13:33:00,72.0,59.2,30.26,NNW,347,1.0,2.0,64,0.00,,---,0.00,VWS V14.01,2013-08-24 17:33:00,
2013-08-24 13:38:00,72.1,57.0,30.26,NNW,347,2.0,3.0,59,0.00,,---,0.00,VWS V14.01,2013-08-24 17:38:00,
2013-08-24 13:43:00,72.2,58.0,30.26,NNW,347,2.0,3.0,61,0.00,,---,0.00,VWS V14.01,2013-08-24 17:43:00,
2013-08-24 13:48:00,72.6,57.9,30.26,NNW,347,0.0,3.0,60,0.00,,---,0.00,VWS V14.01,2013-08-24 17:48:00,
2013-08-24 13:53:00,72.8,58.1,30.26,NNW,348,0.0,3.0,60,0.00,,---,0.00,VWS V14.01,2013-08-24 17:53:00,
2013-08-24 13:59:00,72.8,58.1,30.26,NNW,348,3.0,3.0,60,0.00,,---,0.00,VWS V14.01,2013-08-24 17:59:00,
2013-08-24 14:04:00,72.6,57.9,30.26,NNW,348,0.0,1.0,60,0.00,,---,0.00,VWS V14.01,2013-08-24 18:04:00,
2013-08-24 14:09:00,72.4,58.2,30.26,NNW,348,0.0,2.0,61,0.00,,---,0.00,VWS V14.01,2013-08-24 18:09:00,
2013-08-24 14:14:00,72.6,58.4,30.26,NNW,348,0.0,2.0,61,0.00,,---,0.00,VWS V14.01,2013-08-24 18:14:00,
2013-08-24 14:19:00,72.9,57.3,30.26,NNW,348,1.0,3.0,58,0.00,,---,0.00,VWS V14.01,2013-08-24 18:19:00,
2013-08-24 14:24:00,73.3,59.0,30.25,SE,128,0.0,3.0,61,0.00,,---,0.00,VWS V14.01,2013-08-24 18:24:00,
2013-08-24 14:29:00,73.1,58.4,30.26,NW,316,0.0,3.0,60,0.00,,---,0.00,VWS V14.01,2013-08-24 18:29:00,
2013-08-24 14:34:00,73.3,58.1,30.26,NW,316,0.0,1.0,59,0.00,,---,0.00,VWS V14.01,2013-08-24 18:34:00,
2013-08-24 14:39:00,73.5,57.8,30.25,WNW,296,0.0,2.0,58,0.00,,---,0.00,VWS V14.01,2013-08-24 18:39:00,
2013-08-24 14:45:00,73.7,58.5,30.26,WNW,296,0.0,2.0,59,0.00,,---,0.00,VWS V14.01,2013-08-24 18:45:00,
2013-08-24 14:50:00,73.8,58.1,30.26,North,5,0.0,2.0,58,0.00,,---,0.00,VWS V14.01,2013-08-24 18:50:00,
2013-08-24 14:55:00,74.1,58.4,30.26,South,189,2.0,2.0,58,0.00,,---,0.00,VWS V14.01,2013-08-24 18:55:00,
2013-08-24 15:00:00,74.6,59.3,30.25,South,189,0.0,2.0,59,0.00,,---,0.00,VWS V14.01,2013-08-24 19:00:00,
2013-08-24 15:05:00,74.5,59.2,30.26,NW,308,0.0,3.0,59,0.00,,---,0.00,VWS V14.01,2013-08-24 19:05:00,
2013-08-24 15:10:00,74.2,58.5,30.26,NW,308,0.0,3.0,58,0.00,,---,0.00,VWS V14.01,2013-08-24 19:10:00,
2013-08-24 15:15:00,73.6,57.9,30.26,NW,312,0.0,3.0,58,0.00,,---,0.00,VWS V14.01,2013-08-24 19:15:00,
2013-08-24 15:20:00,73.2,57.5,30.25,NW,312,1.0,3.0,58,0.00,,---,0.00,VWS V14.01,2013-08-24 19:20:00,
2013-08-24 15:25:00,72.8,58.1,30.26,NW,312,1.0,3.0,60,0.00,,---,0.00,VWS V14.01,2013-08-24 19:25:00,
2013-08-24 15:30:00,72.4,58.2,30.25,NW,312,1.0,2.0,61,0.00,,---,0.00,VWS V14.01,2013-08-24 19:30:00,
2013-08-24 15:36:00,72.3,58.1,30.25,NW,312,1.0,3.0,61,0.00,,---,0.00,VWS V14.01,2013-08-24 19:36:00,
2013-08-24 15:41:00,72.4,56.8,30.25,NW,312,0.0,3.0,58,0.00,,---,0.00,VWS V14.01,2013-08-24 19:41:00,
2013-08-24 15:46:00,72.5,58.8,30.25,NW,312,0.0,3.0,62,0.00,,---,0.00,VWS V14.01,2013-08-24 19:46:00,
2013-08-24 15:51:00,72.9,59.6,30.26,NW,312,0.0,3.0,63,0.00,,---,0.00,VWS V14.01,2013-08-24 19:51:00,
2013-08-24 15:56:00,73.2,59.0,30.26,NW,312,0.0,3.0,61,0.00,,---,0.00,VWS V14.01,2013-08-24 19:56:00,
2013-08-24 16:01:00,73.8,59.1,30.26,NW,312,0.0,0.0,60,0.00,,---,0.00,VWS V14.01,2013-08-24 20:01:00,
2013-08-24 16:05:00,73.8,60.0,30.26,NW,312,0.0,0.0,62,0.00,,---,0.00,VWS V14.01,2013-08-24 20:05:00,
2013-08-24 16:11:00,74.0,56.8,30.25,NW,312,0.0,1.0,55,0.00,,---,0.00,VWS V14.01,2013-08-24 20:11:00,
2013-08-24 16:16:00,74.4,59.6,30.25,NW,312,0.0,1.0,60,0.00,,---,0.00,VWS V14.01,2013-08-24 20:16:00,
2013-08-24 16:21:00,74.9,59.6,30.25,NW,312,0.0,1.0,59,0.00,,---,0.00,VWS V14.01,2013-08-24 20:21:00,
2013-08-24 16:26:00,74.7,59.0,30.25,NW,312,0.0,1.0,58,0.00,,---,0.00,VWS V14.01,2013-08-24 20:26:00,
2013-08-24 16:31:00,74.2,59.0,30.25,NW,312,0.0,0.0,59,0.00,,---,0.00,VWS V14.01,2013-08-24 20:31:00,
2013-08-24 16:36:00,73.8,58.6,30.25,NW,313,0.0,1.0,59,0.00,,---,0.00,VWS V14.01,2013-08-24 20:36:00,
2013-08-24 16:41:00,73.4,57.7,30.25,NW,313,0.0,1.0,58,0.00,,---,0.00,VWS V14.01,2013-08-24 20:41:00,
2013-08-24 16:46:00,73.0,58.3,30.25,NW,313,0.0,1.0,60,0.00,,---,0.00,VWS V14.01,2013-08-24 20:46:00,
2013-08-24 16:51:00,72.8,59.0,30.25,NW,313,0.0,1.0,62,0.00,,---,0.00,VWS V14.01,2013-08-24 20:51:00,
2013-08-24 16:56:00,72.7,59.4,30.25,NW,313,0.0,1.0,63,0.00,,---,0.00,VWS V14.01,2013-08-24 20:56:00,
2013-08-24 17:01:00,72.5,58.3,30.26,NW,313,0.0,0.0,61,0.00,,---,0.00,VWS V14.01,2013-08-24 21:01:00,
2013-08-24 17:06:00,72.6,59.3,30.26,NW,313,0.0,0.0,63,0.00,,---,0.00,VWS V14.01,2013-08-24 21:06:00,
2013-08-24 17:11:00,72.4,58.2,30.26,NW,313,0.0,0.0,61,0.00,,---,0.00,VWS V14.01,2013-08-24 21:11:00,
2013-08-24 17:16:00,72.2,60.2,30.26,NW,313,0.0,0.0,66,0.00,,---,0.00,VWS V14.01,2013-08-24 21:16:00,
2013-08-24 17:21:00,72.1,58.8,30.26,NW,313,0.0,0.0,63,0.00,,---,0.00,VWS V14.01,2013-08-24 21:21:00,
2013-08-24 17:26:00,71.9,59.1,30.26,NW,313,0.0,0.0,64,0.00,,---,0.00,VWS V14.01,2013-08-24 21:26:00,
2013-08-24 17:31:00,71.8,59.8,30.25,NW,313,0.0,0.0,66,0.00,,---,0.00,VWS V14.01,2013-08-24 21:31:00,
2013-08-24 17:36:00,71.6,59.2,30.26,NW,313,0.0,0.0,65,0.00,,---,0.00,VWS V14.01,2013-08-24 21:36:00,
2013-08-24 17:41:00,71.5,59.1,30.26,NW,313,0.0,0.0,65,0.00,,---,0.00,VWS V14.01,2013-08-24 21:41:00,
2013-08-24 17:46:00,71.4,60.3,30.26,NW,313,0.0,0.0,68,0.00,,---,0.00,VWS V14.01,2013-08-24 21:46:00,
2013-08-24 17:51:00,71.3,58.9,30.26,NW,313,0.0,0.0,65,0.00,,---,0.00,VWS V14.01,2013-08-24 21:51:00,
2013-08-24 17:56:00,71.3,60.2,30.26,NW,313,0.0,0.0,68,0.00,,---,0.00,VWS V14.01,2013-08-24 21:56:00,
2013-08-24 18:01:00,71.2,59.3,30.26,NW,313,0.0,0.0,66,0.00,,---,0.00,VWS V14.01,2013-08-24 22:01:00,
2013-08-24 18:06:00,71.0,59.1,30.26,NW,313,0.0,0.0,66,0.00,,---,0.00,VWS V14.01,2013-08-24 22:06:00,
2013-08-24 18:11:00,70.8,58.5,30.26,NW,313,0.0,0.0,65,0.00,,---,0.00,VWS V14.01,2013-08-24 22:11:00,
2013-08-24 18:16:00,70.7,58.8,30.26,NW,313,0.0,0.0,66,0.00,,---,0.00,VWS V14.01,2013-08-24 22:16:00,
2013-08-24 18:21:00,70.5,59.0,30.26,NW,313,0.0,0.0,67,0.00,,---,0.00,VWS V14.01,2013-08-24 22:21:00,
2013-08-24 18:26:00,70.4,59.3,30.27,NW,313,0.0,0.0,68,0.00,,---,0.00,VWS V14.01,2013-08-24 22:26:00,
2013-08-24 18:31:00,70.3,58.8,30.27,NW,313,0.0,0.0,67,0.00,,---,0.00,VWS V14.01,2013-08-24 22:31:00,
2013-08-24 18:36:00,70.3,59.2,30.26,NW,313,0.0,0.0,68,0.00,,---,0.00,VWS V14.01,2013-08-24 22:36:00,
2013-08-24 18:41:00,70.1,58.2,30.26,NW,313,0.0,0.0,66,0.00,,---,0.00,VWS V14.01,2013-08-24 22:41:00,
2013-08-24 18:46:00,70.0,58.5,30.26,NW,313,0.0,0.0,67,0.00,,---,0.00,VWS V14.01,2013-08-24 22:46:00,
2013-08-24 18:51:00,69.9,58.9,30.26,NW,313,0.0,0.0,68,0.00,,---,0.00,VWS V14.01,2013-08-24 22:51:00,
2013-08-24 18:56:00,69.8,59.2,30.27,NW,313,0.0,0.0,69,0.00,,---,0.00,VWS V14.01,2013-08-24 22:56:00,
2013-08-24 19:01:00,69.7,60.3,30.26,NW,313,0.0,0.0,72,0.00,,---,0.00,VWS V14.01,2013-08-24 23:01:00,
2013-08-24 19:06:00,69.5,60.1,30.26,NW,313,0.0,0.0,72,0.00,,---,0.00,VWS V14.01,2013-08-24 23:06:00,
2013-08-24 19:11:00,69.3,60.3,30.26,NW,313,0.0,0.0,73,0.00,,---,0.00,VWS V14.01,2013-08-24 23:11:00,
2013-08-24 19:16:00,69.0,60.0,30.26,NW,313,0.0,0.0,73,0.00,,---,0.00,VWS V14.01,2013-08-24 23:16:00,
2013-08-24 19:21:00,68.8,59.8,30.27,NW,313,0.0,0.0,73,0.00,,---,0.00,VWS V14.01,2013-08-24 23:21:00,
2013-08-24 19:26:00,68.5,59.5,30.27,NW,313,0.0,0.0,73,0.00,,---,0.00,VWS V14.01,2013-08-24 23:26:00,
2013-08-24 19:31:00,68.2,58.8,30.28,NW,313,0.0,0.0,72,0.00,,---,0.00,VWS V14.01,2013-08-24 23:31:00,
2013-08-24 19:36:00,68.0,59.0,30.28,NW,313,0.0,0.0,73,0.00,,---,0.00,VWS V14.01,2013-08-24 23:36:00,
2013-08-24 19:41:00,67.7,58.4,30.28,NW,313,0.0,0.0,72,0.00,,---,0.00,VWS V14.01,2013-08-24 23:41:00,
2013-08-24 19:46:00,67.4,58.5,30.28,NW,313,0.0,0.0,73,0.00,,---,0.00,VWS V14.01,2013-08-24 23:46:00,
2013-08-24 19:51:00,67.2,58.3,30.28,NW,313,0.0,0.0,73,0.00,,---,0.00,VWS V14.01,2013-08-24 23:51:00,
2013-08-24 19:56:00,66.9,57.6,30.28,NW,313,0.0,0.0,72,0.00,,---,0.00,VWS V14.01,2013-08-24 23:56:00,
2013-08-24 20:01:00,66.7,57.4,30.28,NW,313,0.0,0.0,72,0.00,,---,0.00,VWS V14.01,2013-08-25 00:01:00,
2013-08-24 20:06:00,66.6,57.3,30.28,NW,313,0.0,0.0,72,0.00,,---,0.00,VWS V14.01,2013-08-25 00:06:00,
2013-08-24 20:11:00,66.4,56.3,30.28,NW,313,0.0,0.0,70,0.00,,---,0.00,VWS V14.01,2013-08-25 00:11:00,
2013-08-24 20:16:00,66.2,55.7,30.29,NW,313,0.0,0.0,69,0.00,,---,0.00,VWS V14.01,2013-08-25 00:16:00,
2013-08-24 20:21:00,66.1,55.7,30.29,NW,313,0.0,0.0,69,0.00,,---,0.00,VWS V14.01,2013-08-25 00:21:00,
2013-08-24 20:26:00,66.1,55.2,30.29,NW,313,0.0,0.0,68,0.00,,---,0.00,VWS V14.01,2013-08-25 00:26:00,
2013-08-24 20:31:00,66.0,55.2,30.29,NW,313,0.0,0.0,68,0.00,,---,0.00,VWS V14.01,2013-08-25 00:31:00,
2013-08-24 20:36:00,65.9,54.7,30.30,NW,313,0.0,0.0,67,0.00,,---,0.00,VWS V14.01,2013-08-25 00:36:00,
2013-08-24 20:41:00,65.8,54.5,30.30,NW,313,0.0,0.0,67,0.00,,---,0.00,VWS V14.01,2013-08-25 00:41:00,
2013-08-24 20:46:00,65.7,54.0,30.30,NW,313,0.0,0.0,66,0.00,,---,0.00,VWS V14.01,2013-08-25 00:46:00,
2013-08-24 20:51:00,65.6,54.0,30.30,NW,313,0.0,0.0,66,0.00,,---,0.00,VWS V14.01,2013-08-25 00:51:00,
2013-08-24 20:56:00,65.7,53.6,30.30,NW,313,0.0,0.0,65,0.00,,---,0.00,VWS V14.01,2013-08-25 00:56:00,
2013-08-24 21:01:00,65.8,53.7,30.30,NW,313,0.0,0.0,65,0.00,,---,0.00,VWS V14.01,2013-08-25 01:01:00,
2013-08-24 21:06:00,66.0,53.9,30.30,NW,313,0.0,0.0,65,0.00,,---,0.00,VWS V14.01,2013-08-25 01:06:00,
2013-08-24 21:11:00,66.2,54.1,30.30,NW,313,0.0,0.0,65,0.00,,---,0.00,VWS V14.01,2013-08-25 01:11:00,
2013-08-24 21:16:00,66.4,54.3,30.30,NW,313,0.0,0.0,65,0.00,,---,0.00,VWS V14.01,2013-08-25 01:16:00,
2013-08-24 21:21:00,66.4,54.3,30.30,NW,313,0.0,0.0,65,0.00,,---,0.00,VWS V14.01,2013-08-25 01:21:00,
2013-08-24 21:26:00,66.3,54.2,30.30,NW,313,0.0,0.0,65,0.00,,---,0.00,VWS V14.01,2013-08-25 01:26:00,
2013-08-24 21:31:00,66.2,54.1,30.30,NW,313,0.0,0.0,65,0.00,,---,0.00,VWS V14.01,2013-08-25 01:31:00,
2013-08-24 21:35:00,66.0,54.3,30.30,NW,313,0.0,0.0,66,0.00,,---,0.00,VWS V14.01,2013-08-25 01:35:00,
2013-08-24 21:40:00,65.9,54.2,30.30,NW,313,0.0,0.0,66,0.00,,---,0.00,VWS V14.01,2013-08-25 01:40:00,
2013-08-24 21:45:00,65.9,54.2,30.30,NW,313,0.0,0.0,66,0.00,,---,0.00,VWS V14.01,2013-08-25 01:45:00,
2013-08-24 21:51:00,65.9,54.2,30.30,NW,313,0.0,0.0,66,0.00,,---,0.00,VWS V14.01,2013-08-25 01:51:00,
2013-08-24 21:56:00,65.9,54.7,30.30,NW,313,0.0,0.0,67,0.00,,---,0.00,VWS V14.01,2013-08-25 01:56:00,
2013-08-24 22:00:00,66.0,56.7,30.30,NW,313,0.0,0.0,72,0.00,,---,0.00,VWS V14.01,2013-08-25 02:00:00,
2013-08-24 22:05:00,65.8,55.0,30.30,NW,313,0.0,0.0,68,0.00,,---,0.00,VWS V14.01,2013-08-25 02:05:00,
2013-08-24 22:10:00,65.7,54.9,30.30,NW,313,0.0,0.0,68,0.00,,---,0.00,VWS V14.01,2013-08-25 02:10:00,
2013-08-24 22:16:00,65.3,54.9,30.30,NW,313,0.0,0.0,69,0.00,,---,0.00,VWS V14.01,2013-08-25 02:16:00,
2013-08-24 22:21:00,64.7,53.9,30.30,NW,313,0.0,0.0,68,0.00,,---,0.00,VWS V14.01,2013-08-25 02:21:00,
2013-08-24 22:26:00,64.4,54.0,30.30,NW,313,0.0,0.0,69,0.00,,---,0.00,VWS V14.01,2013-08-25 02:26:00,
2013-08-24 22:31:00,64.3,54.3,30.31,NW,313,0.0,0.0,70,0.00,,---,0.00,VWS V14.01,2013-08-25 02:31:00,
2013-08-24 22:36:00,64.1,54.5,30.31,NW,313,0.0,0.0,71,0.00,,---,0.00,VWS V14.01,2013-08-25 02:36:00,
2013-08-24 22:41:00,64.1,55.3,30.31,NW,313,0.0,0.0,73,0.00,,---,0.00,VWS V14.01,2013-08-25 02:41:00,
2013-08-24 22:46:00,64.1,55.7,30.31,NW,313,0.0,0.0,74,0.00,,---,0.00,VWS V14.01,2013-08-25 02:46:00,
2013-08-24 22:51:00,64.0,55.9,30.31,NW,313,0.0,0.0,75,0.00,,---,0.00,VWS V14.01,2013-08-25 02:51:00,
2013-08-24 22:56:00,63.7,56.0,30.31,NW,313,0.0,0.0,76,0.00,,---,0.00,VWS V14.01,2013-08-25 02:56:00,
2013-08-24 23:01:00,63.5,55.8,30.31,NW,313,0.0,0.0,76,0.00,,---,0.00,VWS V14.01,2013-08-25 03:01:00,
2013-08-24 23:06:00,63.2,56.2,30.31,NW,313,0.0,0.0,78,0.00,,---,0.00,VWS V14.01,2013-08-25 03:06:00,
2013-08-24 23:11:00,63.0,56.0,30.31,NW,313,0.0,0.0,78,0.00,,---,0.00,VWS V14.01,2013-08-25 03:11:00,
2013-08-24 23:16:00,62.8,56.2,30.31,NW,313,0.0,0.0,79,0.00,,---,0.00,VWS V14.01,2013-08-25 03:16:00,
2013-08-24 23:21:00,62.6,56.3,30.31,NW,313,0.0,0.0,80,0.00,,---,0.00,VWS V14.01,2013-08-25 03:21:00,
2013-08-24 23:26:00,62.4,56.2,30.31,NW,313,0.0,0.0,80,0.00,,---,0.00,VWS V14.01,2013-08-25 03:26:00,
2013-08-24 23:31:00,62.3,56.4,30.32,NW,313,0.0,0.0,81,0.00,,---,0.00,VWS V14.01,2013-08-25 03:31:00,
2013-08-24 23:36:00,62.3,56.4,30.32,NW,313,0.0,0.0,81,0.00,,---,0.00,VWS V14.01,2013-08-25 03:36:00,
2013-08-24 23:41:00,62.2,56.3,30.32,NW,313,0.0,0.0,81,0.00,,---,0.00,VWS V14.01,2013-08-25 03:41:00,
2013-08-24 23:46:00,62.1,56.2,30.32,NW,313,0.0,0.0,81,0.00,,---,0.00,VWS V14.01,2013-08-25 03:46:00,
2013-08-24 23:51:00,62.1,56.2,30.32,NW,313,0.0,0.0,81,0.00,,---,0.00,VWS V14.01,2013-08-25 03:51:00,
2013-08-24 23:56:00,62.0,56.1,30.32,NW,313,0.0,0.0,81,0.00,,---,0.00,VWS V14.01,2013-08-25 03:56:00,